»·PEaware :: N6423L KSBA-KBUR

N6423L :: KSBA-KBUR

FLIGHT INFORMATION

Flight Status: Arrived
Operator: Privately registered:
United States
More flights under this callsign
Pilot: Alexander M. (19327)
Aircraft: BEECH AIRCRAFT DEBONAIR BONANZA
(BE33)
More flights by this aircraft type
Origin: KSBA Santa Barbara Mun
United States
Destination: KBUR Bob Hope-Burbank
United States
More flights between these airports :: More routes between these airports
Route: +
File this flight plan on PilotEdge
Remarks: CAT8
Altitude:
(Current/Filed)
7,500ft
Speed:
(Current/Filed)
0kts
Departed: 17-Oct-18 11:49 AM
Arrived: 17-Oct-18 12:37 PM
Distance/Time
Traveled:
75nm/0:48
Distance/Time
To Go:
Arrived

Flight Plot

Page will automatically refresh every two minutes.


Map Options




Map Legend


Flown Route
Filed Route
Departure Airport
Arrival Airport
Navaid (VOR, NDB)
Fix

Horizontal Profiles

Position Reports

Time Latitude Longitude Heading Altitude Ground
Speed
17-Oct-18 11:48 34.428795 -119.834412 263 17ft 0kts
17-Oct-18 11:49 34.428795 -119.834412 264 17ft 0kts
17-Oct-18 11:50 34.427908 -119.835090 268 17ft 0kts
17-Oct-18 11:51 34.426645 -119.855171 259 470ft 91kts
17-Oct-18 11:52 34.424580 -119.884604 265 1249ft 95kts
17-Oct-18 11:53 34.422910 -119.917190 260 1517ft 99kts
17-Oct-18 11:54 34.417159 -119.953461 238 1564ft 113kts
17-Oct-18 11:55 34.399063 -119.944347 83 1881ft 108kts
17-Oct-18 11:56 34.407473 -119.910779 87 2260ft 105kts
17-Oct-18 11:57 34.406040 -119.876004 97 2593ft 104kts
17-Oct-18 11:58 34.407136 -119.840922 99 2885ft 107kts
17-Oct-18 11:59 34.402772 -119.806100 99 3221ft 107kts
17-Oct-18 12:00 34.398206 -119.771206 99 3589ft 104kts
17-Oct-18 12:01 34.393641 -119.736790 99 3917ft 103kts
17-Oct-18 12:02 34.389070 -119.702611 99 4228ft 103kts
17-Oct-18 12:03 34.384505 -119.668295 97 4524ft 103kts
17-Oct-18 12:04 34.379999 -119.633962 99 4819ft 102kts
17-Oct-18 12:05 34.375330 -119.600047 99 5099ft 102kts
17-Oct-18 12:06 34.370515 -119.564812 98 5329ft 107kts
17-Oct-18 12:07 34.365688 -119.529277 98 5609ft 106kts
17-Oct-18 12:08 34.360897 -119.494034 98 5870ft 106kts
17-Oct-18 12:09 34.356111 -119.458897 98 6120ft 106kts
17-Oct-18 12:10 34.352121 -119.429651 97 6319ft 105kts
17-Oct-18 12:11 34.346539 -119.388812 97 6586ft 105kts
17-Oct-18 12:12 34.342547 -119.359671 97 6768ft 105kts
17-Oct-18 12:13 34.339974 -119.340905 98 6881ft 104kts
17-Oct-18 12:14 34.336071 -119.312500 98 7045ft 104kts
17-Oct-18 12:15 34.332064 -119.283172 97 7240ft 107kts
17-Oct-18 12:16 34.326315 -119.241466 97 7560ft 107kts
17-Oct-18 12:17 34.322200 -119.211687 97 7780ft 107kts
17-Oct-18 12:18 34.317255 -119.176128 98 8027ft 105kts
17-Oct-18 12:19 34.312400 -119.141239 97 8205ft 104kts
17-Oct-18 12:20 34.307585 -119.106628 97 8364ft 104kts
17-Oct-18 12:21 34.302780 -119.072161 97 8503ft 105kts
17-Oct-18 12:22 34.297594 -119.035085 98 8500ft 116kts
17-Oct-18 12:23 34.291911 -118.994307 97 8510ft 138kts
17-Oct-18 12:24 34.284619 -118.943202 97 8500ft 163kts
17-Oct-18 12:25 34.276671 -118.887831 97 8489ft 169kts
17-Oct-18 12:26 34.268629 -118.831167 97 8003ft 157kts
17-Oct-18 12:27 34.261599 -118.781346 97 7597ft 149kts
17-Oct-18 12:28 34.254566 -118.731811 97 7192ft 150kts
17-Oct-18 12:29 34.248017 -118.686518 98 6872ft 134kts
17-Oct-18 12:30 34.242955 -118.642230 95 6056ft 137kts
17-Oct-18 12:31 34.237776 -118.598956 108 4669ft 127kts
17-Oct-18 12:32 34.230094 -118.561087 98 3793ft 112kts
17-Oct-18 12:33 34.225195 -118.524294 104 2882ft 111kts
17-Oct-18 12:34 34.220449 -118.488047 94 2551ft 109kts
17-Oct-18 12:35 34.212822 -118.450972 105 2481ft 117kts
17-Oct-18 12:36 34.204782 -118.416324 103 1837ft 94kts
17-Oct-18 12:37 34.198871 -118.387385 99 1257ft 72kts
17-Oct-18 12:38 34.197833 -118.364492 89 738ft 45kts
17-Oct-18 12:39 34.198758 -118.360272 1 738ft 9kts
17-Oct-18 12:40 34.199825 -118.359869 45 738ft 8kts
17-Oct-18 12:41 34.201368 -118.359946 348 738ft 0kts
17-Oct-18 12:42 34.201368 -118.359946 348 738ft 0kts
17-Oct-18 12:43 34.201368 -118.359946 348 738ft 0kts
17-Oct-18 12:44 34.201368 -118.359946 348 738ft 0kts
17-Oct-18 12:45 34.201368 -118.359946 348 738ft 0kts
17-Oct-18 12:46 34.201368 -118.359946 348 738ft 0kts
17-Oct-18 12:47 34.201368 -118.359946 348 738ft 0kts
17-Oct-18 12:48 34.201368 -118.359946 348 738ft 0kts
17-Oct-18 12:49 34.201368 -118.359946 348 738ft 0kts
17-Oct-18 12:50 34.201368 -118.359946 348 738ft 0kts
17-Oct-18 12:51 34.201368 -118.359946 348 738ft 0kts
17-Oct-18 12:52 34.201368 -118.359946 348 738ft 0kts
17-Oct-18 12:53 34.201368 -118.359946 348 738ft 0kts

Navigation Log

Ident Type
1. KSBA Airport
2. KBUR Airport